sensor_id;sensor_type;location;lat;lon;timestamp;P1;durP1;ratioP1;P2;durP2;ratioP2
18166;SDS011;9208;42.688;23.404;2023-06-22T00:01:27;35.40;;;32.10;;
18166;SDS011;9208;42.688;23.404;2023-06-22T00:03:52;31.73;;;28.67;;
18166;SDS011;9208;42.688;23.404;2023-06-22T00:06:18;18.70;;;17.00;;
18166;SDS011;9208;42.688;23.404;2023-06-22T00:08:44;14.87;;;13.57;;
18166;SDS011;9208;42.688;23.404;2023-06-22T00:11:09;11.47;;;10.40;;
18166;SDS011;9208;42.688;23.404;2023-06-22T00:13:35;10.97;;;9.90;;
18166;SDS011;9208;42.688;23.404;2023-06-22T00:16:00;10.60;;;9.53;;
18166;SDS011;9208;42.688;23.404;2023-06-22T00:18:25;11.20;;;10.20;;
18166;SDS011;9208;42.688;23.404;2023-06-22T00:20:53;10.47;;;9.37;;
18166;SDS011;9208;42.688;23.404;2023-06-22T00:23:22;9.73;;;8.80;;
18166;SDS011;9208;42.688;23.404;2023-06-22T00:25:49;10.13;;;9.30;;
18166;SDS011;9208;42.688;23.404;2023-06-22T00:28:14;9.63;;;8.73;;
18166;SDS011;9208;42.688;23.404;2023-06-22T00:30:40;9.90;;;8.90;;
18166;SDS011;9208;42.688;23.404;2023-06-22T00:33:05;9.47;;;8.57;;
18166;SDS011;9208;42.688;23.404;2023-06-22T00:35:32;9.33;;;8.53;;
18166;SDS011;9208;42.688;23.404;2023-06-22T00:37:59;9.50;;;8.70;;
18166;SDS011;9208;42.688;23.404;2023-06-22T00:40:29;8.90;;;8.20;;
18166;SDS011;9208;42.688;23.404;2023-06-22T00:42:55;9.57;;;8.67;;
18166;SDS011;9208;42.688;23.404;2023-06-22T00:45:24;9.50;;;8.50;;
18166;SDS011;9208;42.688;23.404;2023-06-22T00:47:53;9.13;;;8.33;;
18166;SDS011;9208;42.688;23.404;2023-06-22T00:50:22;9.23;;;8.43;;
18166;SDS011;9208;42.688;23.404;2023-06-22T00:52:53;9.20;;;8.30;;
18166;SDS011;9208;42.688;23.404;2023-06-22T00:55:23;9.77;;;8.87;;
18166;SDS011;9208;42.688;23.404;2023-06-22T00:57:50;11.50;;;10.50;;
18166;SDS011;9208;42.688;23.404;2023-06-22T01:00:20;11.23;;;10.20;;
18166;SDS011;9208;42.688;23.404;2023-06-22T01:02:50;10.57;;;9.67;;
18166;SDS011;9208;42.688;23.404;2023-06-22T01:05:18;9.87;;;9.13;;
18166;SDS011;9208;42.688;23.404;2023-06-22T01:07:49;12.00;;;10.27;;
18166;SDS011;9208;42.688;23.404;2023-06-22T01:10:24;11.00;;;10.00;;
18166;SDS011;9208;42.688;23.404;2023-06-22T01:13:01;10.40;;;9.60;;
18166;SDS011;9208;42.688;23.404;2023-06-22T01:17:54;10.77;;;9.77;;
18166;SDS011;9208;42.688;23.404;2023-06-22T01:20:22;11.10;;;10.10;;
18166;SDS011;9208;42.688;23.404;2023-06-22T01:28:54;10.43;;;9.37;;
18166;SDS011;9208;42.688;23.404;2023-06-22T01:31:23;10.90;;;9.83;;
18166;SDS011;9208;42.688;23.404;2023-06-22T01:33:53;11.27;;;10.10;;
18166;SDS011;9208;42.688;23.404;2023-06-22T01:36:22;11.80;;;10.80;;
18166;SDS011;9208;42.688;23.404;2023-06-22T01:38:50;12.37;;;11.17;;
18166;SDS011;9208;42.688;23.404;2023-06-22T01:41:17;11.83;;;10.73;;
18166;SDS011;9208;42.688;23.404;2023-06-22T01:43:44;11.23;;;10.10;;
18166;SDS011;9208;42.688;23.404;2023-06-22T01:46:10;10.90;;;10.00;;
18166;SDS011;9208;42.688;23.404;2023-06-22T01:48:37;11.33;;;10.23;;
18166;SDS011;9208;42.688;23.404;2023-06-22T01:51:04;11.13;;;10.07;;
18166;SDS011;9208;42.688;23.404;2023-06-22T01:53:30;11.40;;;10.40;;
18166;SDS011;9208;42.688;23.404;2023-06-22T01:55:58;10.90;;;9.97;;
18166;SDS011;9208;42.688;23.404;2023-06-22T01:58:27;11.23;;;10.13;;
18166;SDS011;9208;42.688;23.404;2023-06-22T02:01:15;10.87;;;9.73;;
18166;SDS011;9208;42.688;23.404;2023-06-22T02:03:44;11.10;;;10.10;;
18166;SDS011;9208;42.688;23.404;2023-06-22T02:06:21;10.63;;;9.73;;
18166;SDS011;9208;42.688;23.404;2023-06-22T02:08:57;11.13;;;10.00;;
18166;SDS011;9208;42.688;23.404;2023-06-22T02:11:26;10.70;;;9.80;;
18166;SDS011;9208;42.688;23.404;2023-06-22T02:13:53;11.87;;;10.63;;
18166;SDS011;9208;42.688;23.404;2023-06-22T02:16:21;11.43;;;10.30;;
18166;SDS011;9208;42.688;23.404;2023-06-22T02:18:47;10.17;;;9.27;;
18166;SDS011;9208;42.688;23.404;2023-06-22T02:21:15;12.00;;;10.93;;
18166;SDS011;9208;42.688;23.404;2023-06-22T02:23:41;10.80;;;9.70;;
18166;SDS011;9208;42.688;23.404;2023-06-22T02:26:07;10.70;;;9.67;;
18166;SDS011;9208;42.688;23.404;2023-06-22T02:28:32;15.50;;;11.40;;
18166;SDS011;9208;42.688;23.404;2023-06-22T02:30:58;12.57;;;11.30;;
18166;SDS011;9208;42.688;23.404;2023-06-22T02:33:23;12.50;;;11.20;;
18166;SDS011;9208;42.688;23.404;2023-06-22T02:35:49;10.03;;;9.20;;
18166;SDS011;9208;42.688;23.404;2023-06-22T02:38:14;8.83;;;8.03;;
18166;SDS011;9208;42.688;23.404;2023-06-22T02:40:40;9.33;;;8.40;;
18166;SDS011;9208;42.688;23.404;2023-06-22T02:43:05;8.57;;;7.87;;
18166;SDS011;9208;42.688;23.404;2023-06-22T02:45:31;12.67;;;10.50;;
18166;SDS011;9208;42.688;23.404;2023-06-22T02:47:57;9.70;;;8.80;;
18166;SDS011;9208;42.688;23.404;2023-06-22T02:50:22;10.27;;;9.27;;
18166;SDS011;9208;42.688;23.404;2023-06-22T02:52:48;9.50;;;8.70;;
18166;SDS011;9208;42.688;23.404;2023-06-22T02:55:13;9.40;;;8.50;;
18166;SDS011;9208;42.688;23.404;2023-06-22T02:57:39;10.63;;;9.53;;
18166;SDS011;9208;42.688;23.404;2023-06-22T03:00:09;10.93;;;9.90;;
18166;SDS011;9208;42.688;23.404;2023-06-22T03:02:45;10.67;;;9.57;;
18166;SDS011;9208;42.688;23.404;2023-06-22T03:05:12;10.13;;;9.30;;
18166;SDS011;9208;42.688;23.404;2023-06-22T03:07:43;10.13;;;9.00;;
18166;SDS011;9208;42.688;23.404;2023-06-22T03:10:10;9.60;;;8.70;;
18166;SDS011;9208;42.688;23.404;2023-06-22T03:12:39;9.30;;;8.40;;
18166;SDS011;9208;42.688;23.404;2023-06-22T03:15:09;8.57;;;7.77;;
18166;SDS011;9208;42.688;23.404;2023-06-22T03:17:37;9.67;;;8.67;;
18166;SDS011;9208;42.688;23.404;2023-06-22T03:20:05;9.47;;;8.47;;
18166;SDS011;9208;42.688;23.404;2023-06-22T03:22:43;9.10;;;8.30;;
18166;SDS011;9208;42.688;23.404;2023-06-22T03:25:11;9.07;;;8.30;;
18166;SDS011;9208;42.688;23.404;2023-06-22T03:27:40;10.30;;;9.30;;
18166;SDS011;9208;42.688;23.404;2023-06-22T03:30:07;9.23;;;8.33;;
18166;SDS011;9208;42.688;23.404;2023-06-22T03:32:34;10.23;;;9.23;;
18166;SDS011;9208;42.688;23.404;2023-06-22T03:35:00;9.23;;;8.40;;
18166;SDS011;9208;42.688;23.404;2023-06-22T03:37:27;8.90;;;8.07;;
18166;SDS011;9208;42.688;23.404;2023-06-22T03:39:53;9.97;;;8.90;;
18166;SDS011;9208;42.688;23.404;2023-06-22T03:42:19;9.60;;;8.53;;
18166;SDS011;9208;42.688;23.404;2023-06-22T03:44:45;8.90;;;8.00;;
18166;SDS011;9208;42.688;23.404;2023-06-22T03:47:11;11.83;;;8.80;;
18166;SDS011;9208;42.688;23.404;2023-06-22T03:49:36;9.40;;;8.50;;
18166;SDS011;9208;42.688;23.404;2023-06-22T03:52:02;10.33;;;9.37;;
18166;SDS011;9208;42.688;23.404;2023-06-22T03:54:28;10.73;;;8.77;;
18166;SDS011;9208;42.688;23.404;2023-06-22T03:56:56;9.93;;;8.93;;
18166;SDS011;9208;42.688;23.404;2023-06-22T03:59:22;9.80;;;8.80;;
18166;SDS011;9208;42.688;23.404;2023-06-22T04:01:47;9.47;;;8.60;;
18166;SDS011;9208;42.688;23.404;2023-06-22T04:04:13;9.13;;;8.20;;
18166;SDS011;9208;42.688;23.404;2023-06-22T04:06:38;9.93;;;8.87;;
18166;SDS011;9208;42.688;23.404;2023-06-22T04:09:05;10.20;;;9.07;;
18166;SDS011;9208;42.688;23.404;2023-06-22T04:11:31;10.87;;;9.80;;
18166;SDS011;9208;42.688;23.404;2023-06-22T04:13:56;11.03;;;9.97;;
18166;SDS011;9208;42.688;23.404;2023-06-22T04:16:22;11.47;;;10.27;;
18166;SDS011;9208;42.688;23.404;2023-06-22T04:18:47;11.93;;;10.10;;
18166;SDS011;9208;42.688;23.404;2023-06-22T04:21:13;10.67;;;9.47;;
18166;SDS011;9208;42.688;23.404;2023-06-22T04:23:38;10.27;;;9.27;;
18166;SDS011;9208;42.688;23.404;2023-06-22T04:26:04;9.77;;;8.87;;
18166;SDS011;9208;42.688;23.404;2023-06-22T04:28:29;11.00;;;9.50;;
18166;SDS011;9208;42.688;23.404;2023-06-22T04:30:58;10.03;;;9.00;;
18166;SDS011;9208;42.688;23.404;2023-06-22T04:33:27;10.23;;;9.33;;
18166;SDS011;9208;42.688;23.404;2023-06-22T04:35:54;10.60;;;9.50;;
18166;SDS011;9208;42.688;23.404;2023-06-22T04:38:22;10.50;;;9.50;;
18166;SDS011;9208;42.688;23.404;2023-06-22T04:40:48;11.27;;;10.17;;
18166;SDS011;9208;42.688;23.404;2023-06-22T04:43:13;11.77;;;10.13;;
18166;SDS011;9208;42.688;23.404;2023-06-22T04:45:39;14.10;;;10.97;;
18166;SDS011;9208;42.688;23.404;2023-06-22T04:48:04;12.70;;;11.10;;
18166;SDS011;9208;42.688;23.404;2023-06-22T04:50:30;13.67;;;10.57;;
18166;SDS011;9208;42.688;23.404;2023-06-22T04:52:56;11.20;;;10.10;;
18166;SDS011;9208;42.688;23.404;2023-06-22T04:55:23;9.83;;;8.83;;
18166;SDS011;9208;42.688;23.404;2023-06-22T04:57:50;12.73;;;9.60;;
18166;SDS011;9208;42.688;23.404;2023-06-22T05:00:17;11.03;;;8.93;;
18166;SDS011;9208;42.688;23.404;2023-06-22T05:02:44;10.00;;;9.00;;
18166;SDS011;9208;42.688;23.404;2023-06-22T05:05:11;9.60;;;8.60;;
18166;SDS011;9208;42.688;23.404;2023-06-22T05:07:42;9.90;;;8.90;;
18166;SDS011;9208;42.688;23.404;2023-06-22T05:10:09;10.07;;;9.17;;
18166;SDS011;9208;42.688;23.404;2023-06-22T05:12:36;9.20;;;8.37;;
18166;SDS011;9208;42.688;23.404;2023-06-22T05:15:02;9.80;;;8.67;;
18166;SDS011;9208;42.688;23.404;2023-06-22T05:17:28;9.57;;;8.47;;
18166;SDS011;9208;42.688;23.404;2023-06-22T05:19:54;9.87;;;8.97;;
18166;SDS011;9208;42.688;23.404;2023-06-22T05:22:20;10.87;;;9.33;;
18166;SDS011;9208;42.688;23.404;2023-06-22T05:24:45;12.63;;;8.80;;
18166;SDS011;9208;42.688;23.404;2023-06-22T05:27:11;9.03;;;8.23;;
18166;SDS011;9208;42.688;23.404;2023-06-22T05:29:37;8.87;;;8.03;;
18166;SDS011;9208;42.688;23.404;2023-06-22T05:32:03;9.60;;;8.70;;
18166;SDS011;9208;42.688;23.404;2023-06-22T05:34:28;9.60;;;8.60;;
18166;SDS011;9208;42.688;23.404;2023-06-22T05:36:54;11.27;;;8.90;;
18166;SDS011;9208;42.688;23.404;2023-06-22T05:39:19;10.37;;;9.20;;
18166;SDS011;9208;42.688;23.404;2023-06-22T05:41:45;11.57;;;9.27;;
18166;SDS011;9208;42.688;23.404;2023-06-22T05:44:11;11.10;;;9.93;;
18166;SDS011;9208;42.688;23.404;2023-06-22T05:46:36;11.00;;;9.90;;
18166;SDS011;9208;42.688;23.404;2023-06-22T05:49:02;11.47;;;10.37;;
18166;SDS011;9208;42.688;23.404;2023-06-22T05:51:27;11.47;;;9.80;;
18166;SDS011;9208;42.688;23.404;2023-06-22T05:53:53;9.97;;;9.03;;
18166;SDS011;9208;42.688;23.404;2023-06-22T05:56:18;10.33;;;9.33;;
18166;SDS011;9208;42.688;23.404;2023-06-22T05:58:44;11.03;;;9.03;;
18166;SDS011;9208;42.688;23.404;2023-06-22T06:01:11;9.43;;;8.63;;
18166;SDS011;9208;42.688;23.404;2023-06-22T06:03:40;10.00;;;9.10;;
18166;SDS011;9208;42.688;23.404;2023-06-22T06:06:08;10.07;;;9.00;;
18166;SDS011;9208;42.688;23.404;2023-06-22T06:08:35;18.87;;;10.00;;
18166;SDS011;9208;42.688;23.404;2023-06-22T06:11:01;13.80;;;9.40;;
18166;SDS011;9208;42.688;23.404;2023-06-22T06:13:26;13.30;;;9.50;;
18166;SDS011;9208;42.688;23.404;2023-06-22T06:15:52;13.13;;;10.10;;
18166;SDS011;9208;42.688;23.404;2023-06-22T06:18:20;9.83;;;8.83;;
18166;SDS011;9208;42.688;23.404;2023-06-22T06:20:45;11.97;;;8.67;;
18166;SDS011;9208;42.688;23.404;2023-06-22T06:23:11;9.93;;;8.93;;
18166;SDS011;9208;42.688;23.404;2023-06-22T06:25:36;16.47;;;9.60;;
18166;SDS011;9208;42.688;23.404;2023-06-22T06:28:02;9.87;;;8.87;;
18166;SDS011;9208;42.688;23.404;2023-06-22T06:30:28;9.53;;;8.50;;
18166;SDS011;9208;42.688;23.404;2023-06-22T06:32:54;9.80;;;8.80;;
18166;SDS011;9208;42.688;23.404;2023-06-22T06:35:19;12.40;;;9.33;;
18166;SDS011;9208;42.688;23.404;2023-06-22T06:37:47;11.53;;;8.57;;
18166;SDS011;9208;42.688;23.404;2023-06-22T06:40:16;12.13;;;8.63;;
18166;SDS011;9208;42.688;23.404;2023-06-22T06:42:43;13.40;;;9.10;;
18166;SDS011;9208;42.688;23.404;2023-06-22T06:45:20;10.67;;;8.43;;
18166;SDS011;9208;42.688;23.404;2023-06-22T06:47:49;8.50;;;7.70;;
18166;SDS011;9208;42.688;23.404;2023-06-22T06:50:16;9.27;;;8.37;;
18166;SDS011;9208;42.688;23.404;2023-06-22T06:52:41;9.60;;;8.80;;
18166;SDS011;9208;42.688;23.404;2023-06-22T06:55:07;9.20;;;8.37;;
18166;SDS011;9208;42.688;23.404;2023-06-22T06:57:40;9.30;;;8.33;;
18166;SDS011;9208;42.688;23.404;2023-06-22T07:00:10;11.30;;;8.97;;
18166;SDS011;9208;42.688;23.404;2023-06-22T07:02:39;9.70;;;8.90;;
18166;SDS011;9208;42.688;23.404;2023-06-22T07:05:05;9.40;;;8.20;;
18166;SDS011;9208;42.688;23.404;2023-06-22T07:07:31;8.93;;;8.07;;
18166;SDS011;9208;42.688;23.404;2023-06-22T07:09:57;9.77;;;7.93;;
18166;SDS011;9208;42.688;23.404;2023-06-22T07:12:23;9.77;;;8.77;;
18166;SDS011;9208;42.688;23.404;2023-06-22T07:14:48;9.57;;;8.43;;
18166;SDS011;9208;42.688;23.404;2023-06-22T07:17:15;10.53;;;8.37;;
18166;SDS011;9208;42.688;23.404;2023-06-22T07:19:40;9.03;;;7.70;;
18166;SDS011;9208;42.688;23.404;2023-06-22T07:22:07;8.87;;;7.50;;
18166;SDS011;9208;42.688;23.404;2023-06-22T07:24:32;7.97;;;7.17;;
18166;SDS011;9208;42.688;23.404;2023-06-22T07:26:58;8.23;;;7.43;;
18166;SDS011;9208;42.688;23.404;2023-06-22T07:29:24;8.20;;;7.40;;
18166;SDS011;9208;42.688;23.404;2023-06-22T07:31:50;12.00;;;8.07;;
18166;SDS011;9208;42.688;23.404;2023-06-22T07:34:16;9.53;;;8.30;;
18166;SDS011;9208;42.688;23.404;2023-06-22T07:36:42;8.50;;;7.80;;
18166;SDS011;9208;42.688;23.404;2023-06-22T07:39:08;9.47;;;7.80;;
18166;SDS011;9208;42.688;23.404;2023-06-22T07:41:33;7.97;;;7.17;;
18166;SDS011;9208;42.688;23.404;2023-06-22T07:43:59;8.70;;;7.90;;
18166;SDS011;9208;42.688;23.404;2023-06-22T07:46:24;8.63;;;7.13;;
18166;SDS011;9208;42.688;23.404;2023-06-22T07:48:50;8.90;;;8.10;;
18166;SDS011;9208;42.688;23.404;2023-06-22T07:51:16;8.13;;;7.43;;
18166;SDS011;9208;42.688;23.404;2023-06-22T07:53:42;8.80;;;7.90;;
18166;SDS011;9208;42.688;23.404;2023-06-22T07:56:11;8.40;;;7.70;;
18166;SDS011;9208;42.688;23.404;2023-06-22T07:58:37;7.83;;;7.13;;
18166;SDS011;9208;42.688;23.404;2023-06-22T08:01:02;8.60;;;7.77;;
18166;SDS011;9208;42.688;23.404;2023-06-22T08:03:28;9.00;;;8.00;;
18166;SDS011;9208;42.688;23.404;2023-06-22T08:05:54;11.37;;;8.60;;
18166;SDS011;9208;42.688;23.404;2023-06-22T08:08:20;9.43;;;8.50;;
18166;SDS011;9208;42.688;23.404;2023-06-22T08:10:45;10.67;;;9.77;;
18166;SDS011;9208;42.688;23.404;2023-06-22T08:13:11;10.37;;;9.23;;
18166;SDS011;9208;42.688;23.404;2023-06-22T08:15:36;10.53;;;9.53;;
18166;SDS011;9208;42.688;23.404;2023-06-22T08:18:02;10.07;;;8.97;;
18166;SDS011;9208;42.688;23.404;2023-06-22T08:20:27;10.40;;;8.47;;
18166;SDS011;9208;42.688;23.404;2023-06-22T08:22:53;10.57;;;9.47;;
18166;SDS011;9208;42.688;23.404;2023-06-22T08:25:19;10.03;;;8.93;;
18166;SDS011;9208;42.688;23.404;2023-06-22T08:27:46;10.23;;;9.23;;
18166;SDS011;9208;42.688;23.404;2023-06-22T08:30:12;9.60;;;8.60;;
18166;SDS011;9208;42.688;23.404;2023-06-22T08:32:38;10.17;;;9.07;;
18166;SDS011;9208;42.688;23.404;2023-06-22T08:35:04;10.47;;;9.60;;
18166;SDS011;9208;42.688;23.404;2023-06-22T08:37:33;10.77;;;9.73;;
18166;SDS011;9208;42.688;23.404;2023-06-22T08:40:00;10.70;;;9.17;;
18166;SDS011;9208;42.688;23.404;2023-06-22T08:42:29;11.13;;;9.33;;
18166;SDS011;9208;42.688;23.404;2023-06-22T08:44:55;13.40;;;9.67;;
18166;SDS011;9208;42.688;23.404;2023-06-22T08:47:20;11.97;;;10.13;;
18166;SDS011;9208;42.688;23.404;2023-06-22T08:49:46;11.70;;;9.80;;
18166;SDS011;9208;42.688;23.404;2023-06-22T08:52:12;12.37;;;10.10;;
18166;SDS011;9208;42.688;23.404;2023-06-22T08:54:37;11.90;;;10.00;;
18166;SDS011;9208;42.688;23.404;2023-06-22T08:57:03;11.10;;;9.93;;
18166;SDS011;9208;42.688;23.404;2023-06-22T08:59:28;12.57;;;10.30;;
18166;SDS011;9208;42.688;23.404;2023-06-22T09:01:54;11.97;;;9.43;;
18166;SDS011;9208;42.688;23.404;2023-06-22T09:04:19;15.47;;;11.00;;
18166;SDS011;9208;42.688;23.404;2023-06-22T09:06:47;11.93;;;10.63;;
18166;SDS011;9208;42.688;23.404;2023-06-22T09:09:13;11.87;;;10.87;;
18166;SDS011;9208;42.688;23.404;2023-06-22T09:11:41;11.83;;;10.63;;
18166;SDS011;9208;42.688;23.404;2023-06-22T09:14:08;16.30;;;12.20;;
18166;SDS011;9208;42.688;23.404;2023-06-22T09:16:34;13.97;;;10.80;;
18166;SDS011;9208;42.688;23.404;2023-06-22T09:19:00;11.10;;;9.93;;
18166;SDS011;9208;42.688;23.404;2023-06-22T09:21:25;12.80;;;11.23;;
18166;SDS011;9208;42.688;23.404;2023-06-22T09:23:50;12.13;;;10.43;;
18166;SDS011;9208;42.688;23.404;2023-06-22T09:26:19;11.17;;;10.20;;
18166;SDS011;9208;42.688;23.404;2023-06-22T09:28:45;11.17;;;9.53;;
18166;SDS011;9208;42.688;23.404;2023-06-22T09:31:11;10.37;;;9.47;;
18166;SDS011;9208;42.688;23.404;2023-06-22T09:33:37;12.40;;;8.60;;
18166;SDS011;9208;42.688;23.404;2023-06-22T09:36:06;9.20;;;8.30;;
18166;SDS011;9208;42.688;23.404;2023-06-22T09:38:38;8.93;;;8.00;;
18166;SDS011;9208;42.688;23.404;2023-06-22T09:41:03;11.67;;;9.20;;
18166;SDS011;9208;42.688;23.404;2023-06-22T09:43:30;9.17;;;8.27;;
18166;SDS011;9208;42.688;23.404;2023-06-22T09:45:57;10.37;;;8.57;;
18166;SDS011;9208;42.688;23.404;2023-06-22T09:48:22;9.23;;;8.30;;
18166;SDS011;9208;42.688;23.404;2023-06-22T09:50:47;9.13;;;8.33;;
18166;SDS011;9208;42.688;23.404;2023-06-22T09:53:13;10.15;;;8.50;;
18166;SDS011;9208;42.688;23.404;2023-06-22T09:55:38;8.80;;;7.93;;
18166;SDS011;9208;42.688;23.404;2023-06-22T09:58:04;11.37;;;8.40;;
18166;SDS011;9208;42.688;23.404;2023-06-22T10:00:29;15.47;;;9.27;;
18166;SDS011;9208;42.688;23.404;2023-06-22T10:02:55;9.40;;;8.60;;
18166;SDS011;9208;42.688;23.404;2023-06-22T10:05:23;9.33;;;8.43;;
18166;SDS011;9208;42.688;23.404;2023-06-22T10:07:50;8.77;;;7.93;;
18166;SDS011;9208;42.688;23.404;2023-06-22T10:10:15;8.80;;;8.10;;
18166;SDS011;9208;42.688;23.404;2023-06-22T10:12:42;9.10;;;7.80;;
18166;SDS011;9208;42.688;23.404;2023-06-22T10:15:10;8.07;;;7.37;;
18166;SDS011;9208;42.688;23.404;2023-06-22T10:17:36;8.57;;;7.93;;
18166;SDS011;9208;42.688;23.404;2023-06-22T10:20:02;7.60;;;6.90;;
18166;SDS011;9208;42.688;23.404;2023-06-22T10:22:36;7.53;;;6.93;;
18166;SDS011;9208;42.688;23.404;2023-06-22T10:25:02;7.67;;;7.00;;
18166;SDS011;9208;42.688;23.404;2023-06-22T10:27:28;8.20;;;7.50;;
18166;SDS011;9208;42.688;23.404;2023-06-22T10:29:53;9.60;;;8.00;;
18166;SDS011;9208;42.688;23.404;2023-06-22T10:32:18;7.33;;;6.73;;
18166;SDS011;9208;42.688;23.404;2023-06-22T10:34:44;10.03;;;7.47;;
18166;SDS011;9208;42.688;23.404;2023-06-22T10:37:09;7.70;;;7.20;;
18166;SDS011;9208;42.688;23.404;2023-06-22T10:39:35;7.77;;;7.13;;
18166;SDS011;9208;42.688;23.404;2023-06-22T10:42:00;7.47;;;6.63;;
18166;SDS011;9208;42.688;23.404;2023-06-22T10:44:26;7.37;;;6.73;;
18166;SDS011;9208;42.688;23.404;2023-06-22T10:46:51;8.03;;;7.30;;
18166;SDS011;9208;42.688;23.404;2023-06-22T10:49:16;7.60;;;7.00;;
18166;SDS011;9208;42.688;23.404;2023-06-22T10:51:42;7.80;;;7.10;;
18166;SDS011;9208;42.688;23.404;2023-06-22T10:54:07;7.97;;;7.37;;
18166;SDS011;9208;42.688;23.404;2023-06-22T10:56:33;8.00;;;7.30;;
18166;SDS011;9208;42.688;23.404;2023-06-22T10:58:58;7.17;;;6.67;;
18166;SDS011;9208;42.688;23.404;2023-06-22T11:01:24;7.90;;;7.20;;
18166;SDS011;9208;42.688;23.404;2023-06-22T11:03:49;7.80;;;7.20;;
18166;SDS011;9208;42.688;23.404;2023-06-22T11:06:15;6.90;;;6.43;;
18166;SDS011;9208;42.688;23.404;2023-06-22T11:08:43;7.63;;;6.93;;
18166;SDS011;9208;42.688;23.404;2023-06-22T11:11:09;7.47;;;6.87;;
18166;SDS011;9208;42.688;23.404;2023-06-22T11:13:34;7.13;;;6.63;;
18166;SDS011;9208;42.688;23.404;2023-06-22T11:16:00;8.33;;;7.20;;
18166;SDS011;9208;42.688;23.404;2023-06-22T11:18:25;7.97;;;7.37;;
18166;SDS011;9208;42.688;23.404;2023-06-22T11:20:51;7.87;;;7.27;;
18166;SDS011;9208;42.688;23.404;2023-06-22T11:23:16;7.47;;;6.87;;
18166;SDS011;9208;42.688;23.404;2023-06-22T11:25:41;7.50;;;6.90;;
18166;SDS011;9208;42.688;23.404;2023-06-22T11:28:07;7.67;;;7.07;;
18166;SDS011;9208;42.688;23.404;2023-06-22T11:30:33;7.87;;;7.20;;
18166;SDS011;9208;42.688;23.404;2023-06-22T11:32:59;7.68;;;6.95;;
18166;SDS011;9208;42.688;23.404;2023-06-22T11:35:25;8.13;;;7.33;;
18166;SDS011;9208;42.688;23.404;2023-06-22T11:37:51;9.37;;;7.43;;
18166;SDS011;9208;42.688;23.404;2023-06-22T11:40:16;9.57;;;8.68;;
18166;SDS011;9208;42.688;23.404;2023-06-22T11:42:42;7.95;;;7.35;;
18166;SDS011;9208;42.688;23.404;2023-06-22T11:45:08;8.02;;;7.43;;
18166;SDS011;9208;42.688;23.404;2023-06-22T11:47:37;7.43;;;6.78;;
18166;SDS011;9208;42.688;23.404;2023-06-22T11:50:02;8.13;;;7.43;;
18166;SDS011;9208;42.688;23.404;2023-06-22T11:52:28;7.93;;;7.13;;
18166;SDS011;9208;42.688;23.404;2023-06-22T11:54:53;7.93;;;7.30;;
18166;SDS011;9208;42.688;23.404;2023-06-22T11:57:19;7.72;;;6.95;;
18166;SDS011;9208;42.688;23.404;2023-06-22T11:59:44;7.82;;;7.22;;
18166;SDS011;9208;42.688;23.404;2023-06-22T12:02:10;11.50;;;7.68;;
18166;SDS011;9208;42.688;23.404;2023-06-22T12:04:35;8.35;;;7.65;;
18166;SDS011;9208;42.688;23.404;2023-06-22T12:07:01;8.15;;;7.43;;
18166;SDS011;9208;42.688;23.404;2023-06-22T12:09:27;7.72;;;7.03;;
18166;SDS011;9208;42.688;23.404;2023-06-22T12:11:53;8.45;;;7.63;;
18166;SDS011;9208;42.688;23.404;2023-06-22T12:14:18;9.30;;;7.57;;
18166;SDS011;9208;42.688;23.404;2023-06-22T12:16:43;10.13;;;7.63;;
18166;SDS011;9208;42.688;23.404;2023-06-22T12:19:10;8.80;;;7.90;;
18166;SDS011;9208;42.688;23.404;2023-06-22T12:21:36;8.87;;;7.30;;
18166;SDS011;9208;42.688;23.404;2023-06-22T12:24:02;7.47;;;6.78;;
18166;SDS011;9208;42.688;23.404;2023-06-22T12:26:28;9.50;;;7.27;;
18166;SDS011;9208;42.688;23.404;2023-06-22T12:28:53;10.40;;;8.10;;
18166;SDS011;9208;42.688;23.404;2023-06-22T12:31:19;18.90;;;9.65;;
18166;SDS011;9208;42.688;23.404;2023-06-22T12:33:44;8.13;;;7.10;;
18166;SDS011;9208;42.688;23.404;2023-06-22T12:36:13;10.37;;;8.07;;
18166;SDS011;9208;42.688;23.404;2023-06-22T12:38:38;12.30;;;8.03;;
18166;SDS011;9208;42.688;23.404;2023-06-22T12:41:03;12.00;;;8.20;;
18166;SDS011;9208;42.688;23.404;2023-06-22T12:43:29;13.50;;;9.00;;
18166;SDS011;9208;42.688;23.404;2023-06-22T12:45:54;13.30;;;9.40;;
18166;SDS011;9208;42.688;23.404;2023-06-22T12:48:21;12.07;;;8.03;;
18166;SDS011;9208;42.688;23.404;2023-06-22T12:50:47;9.30;;;8.50;;
18166;SDS011;9208;42.688;23.404;2023-06-22T12:53:13;12.70;;;10.20;;
18166;SDS011;9208;42.688;23.404;2023-06-22T12:55:38;10.60;;;9.03;;
18166;SDS011;9208;42.688;23.404;2023-06-22T12:58:03;10.70;;;9.33;;
18166;SDS011;9208;42.688;23.404;2023-06-22T13:00:29;11.83;;;10.67;;
18166;SDS011;9208;42.688;23.404;2023-06-22T13:02:54;10.73;;;9.63;;
18166;SDS011;9208;42.688;23.404;2023-06-22T13:05:20;14.27;;;9.60;;
18166;SDS011;9208;42.688;23.404;2023-06-22T13:07:46;10.07;;;9.07;;
18166;SDS011;9208;42.688;23.404;2023-06-22T13:10:11;12.33;;;9.03;;
18166;SDS011;9208;42.688;23.404;2023-06-22T13:12:37;9.60;;;8.60;;
18166;SDS011;9208;42.688;23.404;2023-06-22T13:15:02;9.23;;;8.00;;
18166;SDS011;9208;42.688;23.404;2023-06-22T13:17:28;10.20;;;8.73;;
18166;SDS011;9208;42.688;23.404;2023-06-22T13:19:54;11.93;;;8.30;;
18166;SDS011;9208;42.688;23.404;2023-06-22T13:22:29;12.23;;;8.93;;
18166;SDS011;9208;42.688;23.404;2023-06-22T13:24:56;10.23;;;8.00;;
18166;SDS011;9208;42.688;23.404;2023-06-22T13:27:23;9.30;;;8.33;;
18166;SDS011;9208;42.688;23.404;2023-06-22T13:29:48;9.93;;;8.93;;
18166;SDS011;9208;42.688;23.404;2023-06-22T13:32:14;9.23;;;8.23;;
18166;SDS011;9208;42.688;23.404;2023-06-22T13:34:39;11.63;;;8.80;;
18166;SDS011;9208;42.688;23.404;2023-06-22T13:37:05;8.83;;;7.93;;
18166;SDS011;9208;42.688;23.404;2023-06-22T13:39:31;10.97;;;9.07;;
18166;SDS011;9208;42.688;23.404;2023-06-22T13:41:57;12.27;;;9.10;;
18166;SDS011;9208;42.688;23.404;2023-06-22T13:44:23;14.63;;;8.60;;
18166;SDS011;9208;42.688;23.404;2023-06-22T13:46:48;10.13;;;8.40;;
18166;SDS011;9208;42.688;23.404;2023-06-22T13:49:14;11.30;;;7.70;;
18166;SDS011;9208;42.688;23.404;2023-06-22T13:51:39;9.17;;;8.23;;
18166;SDS011;9208;42.688;23.404;2023-06-22T13:54:04;9.67;;;8.67;;
18166;SDS011;9208;42.688;23.404;2023-06-22T13:56:30;11.00;;;8.87;;
18166;SDS011;9208;42.688;23.404;2023-06-22T13:58:55;10.33;;;9.33;;
18166;SDS011;9208;42.688;23.404;2023-06-22T14:01:21;9.03;;;8.23;;
18166;SDS011;9208;42.688;23.404;2023-06-22T14:03:47;9.97;;;8.83;;
18166;SDS011;9208;42.688;23.404;2023-06-22T14:06:13;9.60;;;8.67;;
18166;SDS011;9208;42.688;23.404;2023-06-22T14:08:38;10.07;;;8.40;;
18166;SDS011;9208;42.688;23.404;2023-06-22T14:11:04;10.03;;;9.03;;
18166;SDS011;9208;42.688;23.404;2023-06-22T14:13:29;18.63;;;9.43;;
18166;SDS011;9208;42.688;23.404;2023-06-22T14:15:55;13.23;;;9.17;;
18166;SDS011;9208;42.688;23.404;2023-06-22T14:18:20;14.57;;;9.03;;
18166;SDS011;9208;42.688;23.404;2023-06-22T14:20:47;14.17;;;8.93;;
18166;SDS011;9208;42.688;23.404;2023-06-22T14:23:13;11.53;;;8.43;;
18166;SDS011;9208;42.688;23.404;2023-06-22T14:25:39;9.63;;;8.07;;
18166;SDS011;9208;42.688;23.404;2023-06-22T14:28:05;9.80;;;8.73;;
18166;SDS011;9208;42.688;23.404;2023-06-22T14:30:32;10.20;;;8.80;;
18166;SDS011;9208;42.688;23.404;2023-06-22T14:32:57;10.13;;;9.13;;
18166;SDS011;9208;42.688;23.404;2023-06-22T14:35:23;12.47;;;9.40;;
18166;SDS011;9208;42.688;23.404;2023-06-22T14:37:49;10.97;;;9.63;;
18166;SDS011;9208;42.688;23.404;2023-06-22T14:40:16;10.60;;;9.30;;
18166;SDS011;9208;42.688;23.404;2023-06-22T14:42:41;10.07;;;9.07;;